sensor_id;sensor_type;location;lat;lon;timestamp;temperature;humidity
5128;DHT22;2582;48.770;9.190;2024-01-30T00:02:16;5.50;99.90
5128;DHT22;2582;48.770;9.190;2024-01-30T00:04:41;5.70;99.90
5128;DHT22;2582;48.770;9.190;2024-01-30T00:07:07;5.70;99.90
5128;DHT22;2582;48.770;9.190;2024-01-30T00:09:33;5.70;99.90
5128;DHT22;2582;48.770;9.190;2024-01-30T00:11:58;5.80;99.90
5128;DHT22;2582;48.770;9.190;2024-01-30T00:14:24;5.70;99.90
5128;DHT22;2582;48.770;9.190;2024-01-30T00:16:51;5.70;99.90
5128;DHT22;2582;48.770;9.190;2024-01-30T00:19:16;5.80;99.90
5128;DHT22;2582;48.770;9.190;2024-01-30T00:21:42;5.80;99.90
5128;DHT22;2582;48.770;9.190;2024-01-30T00:24:08;5.90;99.90
5128;DHT22;2582;48.770;9.190;2024-01-30T00:26:33;5.90;99.90
5128;DHT22;2582;48.770;9.190;2024-01-30T00:28:59;5.80;99.90
5128;DHT22;2582;48.770;9.190;2024-01-30T00:31:25;5.80;99.90
5128;DHT22;2582;48.770;9.190;2024-01-30T00:33:51;5.80;99.90
5128;DHT22;2582;48.770;9.190;2024-01-30T00:36:16;5.90;99.90
5128;DHT22;2582;48.770;9.190;2024-01-30T00:38:42;6.00;99.90
5128;DHT22;2582;48.770;9.190;2024-01-30T00:41:10;6.00;99.90
5128;DHT22;2582;48.770;9.190;2024-01-30T00:43:37;6.00;99.90
5128;DHT22;2582;48.770;9.190;2024-01-30T00:46:02;6.00;99.90
5128;DHT22;2582;48.770;9.190;2024-01-30T00:48:28;5.90;99.90
5128;DHT22;2582;48.770;9.190;2024-01-30T00:50:54;5.80;99.90
5128;DHT22;2582;48.770;9.190;2024-01-30T00:53:19;5.80;99.90
5128;DHT22;2582;48.770;9.190;2024-01-30T00:55:45;5.80;99.90
5128;DHT22;2582;48.770;9.190;2024-01-30T00:58:11;5.90;99.90
5128;DHT22;2582;48.770;9.190;2024-01-30T01:00:36;6.00;99.90
5128;DHT22;2582;48.770;9.190;2024-01-30T01:03:03;6.00;99.90
5128;DHT22;2582;48.770;9.190;2024-01-30T01:05:28;5.80;99.90
5128;DHT22;2582;48.770;9.190;2024-01-30T01:07:54;5.80;99.90
5128;DHT22;2582;48.770;9.190;2024-01-30T01:10:20;5.70;99.90
5128;DHT22;2582;48.770;9.190;2024-01-30T01:12:46;5.60;99.90
5128;DHT22;2582;48.770;9.190;2024-01-30T01:15:11;5.50;99.90
5128;DHT22;2582;48.770;9.190;2024-01-30T01:17:40;5.60;99.90
5128;DHT22;2582;48.770;9.190;2024-01-30T01:20:07;5.70;99.90
5128;DHT22;2582;48.770;9.190;2024-01-30T01:22:33;5.60;99.90
5128;DHT22;2582;48.770;9.190;2024-01-30T01:25:02;5.70;99.90
5128;DHT22;2582;48.770;9.190;2024-01-30T01:27:27;5.50;99.90
5128;DHT22;2582;48.770;9.190;2024-01-30T01:29:53;5.50;99.90
5128;DHT22;2582;48.770;9.190;2024-01-30T01:32:19;5.50;99.90
5128;DHT22;2582;48.770;9.190;2024-01-30T01:34:45;5.60;99.90
5128;DHT22;2582;48.770;9.190;2024-01-30T01:37:11;5.60;99.90
5128;DHT22;2582;48.770;9.190;2024-01-30T01:39:36;5.60;99.90
5128;DHT22;2582;48.770;9.190;2024-01-30T01:42:02;5.60;99.90
5128;DHT22;2582;48.770;9.190;2024-01-30T01:44:28;5.60;99.90
5128;DHT22;2582;48.770;9.190;2024-01-30T01:46:54;5.40;99.90
5128;DHT22;2582;48.770;9.190;2024-01-30T01:49:20;5.40;99.90
5128;DHT22;2582;48.770;9.190;2024-01-30T01:51:47;5.50;99.90
5128;DHT22;2582;48.770;9.190;2024-01-30T01:54:14;5.40;99.90
5128;DHT22;2582;48.770;9.190;2024-01-30T01:56:42;5.40;99.90
5128;DHT22;2582;48.770;9.190;2024-01-30T01:59:08;5.30;99.90
5128;DHT22;2582;48.770;9.190;2024-01-30T02:01:38;5.30;99.90
5128;DHT22;2582;48.770;9.190;2024-01-30T02:04:07;5.30;99.90
5128;DHT22;2582;48.770;9.190;2024-01-30T02:06:34;5.20;99.90
5128;DHT22;2582;48.770;9.190;2024-01-30T02:09:00;5.20;99.90
5128;DHT22;2582;48.770;9.190;2024-01-30T02:11:25;5.30;99.90
5128;DHT22;2582;48.770;9.190;2024-01-30T02:13:51;5.30;99.90
5128;DHT22;2582;48.770;9.190;2024-01-30T02:16:17;5.30;99.90
5128;DHT22;2582;48.770;9.190;2024-01-30T02:18:43;5.40;99.90
5128;DHT22;2582;48.770;9.190;2024-01-30T02:21:13;5.40;99.90
5128;DHT22;2582;48.770;9.190;2024-01-30T02:23:39;5.40;99.90
5128;DHT22;2582;48.770;9.190;2024-01-30T02:26:06;5.30;99.90
5128;DHT22;2582;48.770;9.190;2024-01-30T02:28:31;5.20;99.90
5128;DHT22;2582;48.770;9.190;2024-01-30T02:30:57;5.10;99.90
5128;DHT22;2582;48.770;9.190;2024-01-30T02:33:22;5.10;99.90
5128;DHT22;2582;48.770;9.190;2024-01-30T02:35:48;5.20;99.90
5128;DHT22;2582;48.770;9.190;2024-01-30T02:38:15;5.00;99.90
5128;DHT22;2582;48.770;9.190;2024-01-30T02:40:40;4.90;99.90
5128;DHT22;2582;48.770;9.190;2024-01-30T02:43:06;5.00;99.90
5128;DHT22;2582;48.770;9.190;2024-01-30T02:45:31;5.00;99.90
5128;DHT22;2582;48.770;9.190;2024-01-30T02:47:57;5.00;99.90
5128;DHT22;2582;48.770;9.190;2024-01-30T02:50:23;5.00;99.90
5128;DHT22;2582;48.770;9.190;2024-01-30T02:52:48;5.00;99.90
5128;DHT22;2582;48.770;9.190;2024-01-30T02:55:14;5.00;99.90
5128;DHT22;2582;48.770;9.190;2024-01-30T02:57:42;5.10;99.90
5128;DHT22;2582;48.770;9.190;2024-01-30T03:00:08;5.20;99.90
5128;DHT22;2582;48.770;9.190;2024-01-30T03:02:35;5.30;99.90
5128;DHT22;2582;48.770;9.190;2024-01-30T03:05:00;5.40;99.90
5128;DHT22;2582;48.770;9.190;2024-01-30T03:07:26;5.30;99.90
5128;DHT22;2582;48.770;9.190;2024-01-30T03:09:52;5.20;99.90
5128;DHT22;2582;48.770;9.190;2024-01-30T03:12:18;5.20;99.90
5128;DHT22;2582;48.770;9.190;2024-01-30T03:14:43;5.10;99.90
5128;DHT22;2582;48.770;9.190;2024-01-30T03:17:09;5.10;99.90
5128;DHT22;2582;48.770;9.190;2024-01-30T03:19:34;5.10;99.90
5128;DHT22;2582;48.770;9.190;2024-01-30T03:22:00;5.10;99.90
5128;DHT22;2582;48.770;9.190;2024-01-30T03:24:25;5.20;99.90
5128;DHT22;2582;48.770;9.190;2024-01-30T03:26:51;5.30;99.90
5128;DHT22;2582;48.770;9.190;2024-01-30T03:29:17;5.20;99.90
5128;DHT22;2582;48.770;9.190;2024-01-30T03:31:42;5.30;99.90
5128;DHT22;2582;48.770;9.190;2024-01-30T03:34:08;5.20;99.90
5128;DHT22;2582;48.770;9.190;2024-01-30T03:36:33;5.10;99.90
5128;DHT22;2582;48.770;9.190;2024-01-30T03:39:00;5.10;99.90
5128;DHT22;2582;48.770;9.190;2024-01-30T03:41:25;5.10;99.90
5128;DHT22;2582;48.770;9.190;2024-01-30T03:43:51;5.00;99.90
5128;DHT22;2582;48.770;9.190;2024-01-30T03:46:16;4.90;99.90
5128;DHT22;2582;48.770;9.190;2024-01-30T03:48:42;5.00;99.90
5128;DHT22;2582;48.770;9.190;2024-01-30T03:51:08;5.10;99.90
5128;DHT22;2582;48.770;9.190;2024-01-30T03:53:34;5.00;99.90
5128;DHT22;2582;48.770;9.190;2024-01-30T03:56:00;5.10;99.90
5128;DHT22;2582;48.770;9.190;2024-01-30T03:58:25;5.10;99.90
5128;DHT22;2582;48.770;9.190;2024-01-30T04:00:51;5.00;99.90
5128;DHT22;2582;48.770;9.190;2024-01-30T04:03:17;5.00;99.90
5128;DHT22;2582;48.770;9.190;2024-01-30T04:05:42;5.10;99.90
5128;DHT22;2582;48.770;9.190;2024-01-30T04:08:08;5.00;99.90
5128;DHT22;2582;48.770;9.190;2024-01-30T04:10:34;4.90;99.90
5128;DHT22;2582;48.770;9.190;2024-01-30T04:12:59;4.90;99.90
5128;DHT22;2582;48.770;9.190;2024-01-30T04:15:25;4.80;99.90
5128;DHT22;2582;48.770;9.190;2024-01-30T04:17:51;4.80;99.90
5128;DHT22;2582;48.770;9.190;2024-01-30T04:20:17;4.90;99.90
5128;DHT22;2582;48.770;9.190;2024-01-30T04:22:44;4.90;99.90
5128;DHT22;2582;48.770;9.190;2024-01-30T04:25:10;4.80;99.90
5128;DHT22;2582;48.770;9.190;2024-01-30T04:27:35;4.70;99.90
5128;DHT22;2582;48.770;9.190;2024-01-30T04:30:01;4.70;99.90
5128;DHT22;2582;48.770;9.190;2024-01-30T04:32:26;4.70;99.90
5128;DHT22;2582;48.770;9.190;2024-01-30T04:34:52;4.70;99.90
5128;DHT22;2582;48.770;9.190;2024-01-30T04:37:17;4.70;99.90
5128;DHT22;2582;48.770;9.190;2024-01-30T04:39:43;4.80;99.90
5128;DHT22;2582;48.770;9.190;2024-01-30T04:42:08;4.70;99.90
5128;DHT22;2582;48.770;9.190;2024-01-30T04:44:34;4.80;99.90
5128;DHT22;2582;48.770;9.190;2024-01-30T04:46:59;4.80;99.90
5128;DHT22;2582;48.770;9.190;2024-01-30T04:49:27;4.80;99.90
5128;DHT22;2582;48.770;9.190;2024-01-30T04:51:53;4.70;99.90
5128;DHT22;2582;48.770;9.190;2024-01-30T04:54:18;4.70;99.90
5128;DHT22;2582;48.770;9.190;2024-01-30T04:56:44;4.60;99.90
5128;DHT22;2582;48.770;9.190;2024-01-30T04:59:09;4.60;99.90
5128;DHT22;2582;48.770;9.190;2024-01-30T05:01:35;4.60;99.90
5128;DHT22;2582;48.770;9.190;2024-01-30T05:04:00;4.50;99.90
5128;DHT22;2582;48.770;9.190;2024-01-30T05:06:27;4.60;99.90
5128;DHT22;2582;48.770;9.190;2024-01-30T05:08:53;4.60;99.90
5128;DHT22;2582;48.770;9.190;2024-01-30T05:11:18;4.50;99.90
5128;DHT22;2582;48.770;9.190;2024-01-30T05:13:44;4.50;99.90
5128;DHT22;2582;48.770;9.190;2024-01-30T05:16:09;4.50;99.90
5128;DHT22;2582;48.770;9.190;2024-01-30T05:18:35;4.60;99.90
5128;DHT22;2582;48.770;9.190;2024-01-30T05:21:02;4.50;99.90
5128;DHT22;2582;48.770;9.190;2024-01-30T05:23:27;4.50;99.90
5128;DHT22;2582;48.770;9.190;2024-01-30T05:25:53;4.50;99.90
5128;DHT22;2582;48.770;9.190;2024-01-30T05:28:18;4.50;99.90
5128;DHT22;2582;48.770;9.190;2024-01-30T05:30:44;4.50;99.90
5128;DHT22;2582;48.770;9.190;2024-01-30T05:33:10;4.50;99.90
5128;DHT22;2582;48.770;9.190;2024-01-30T05:35:37;4.50;99.90
5128;DHT22;2582;48.770;9.190;2024-01-30T05:38:03;4.50;99.90
5128;DHT22;2582;48.770;9.190;2024-01-30T05:40:28;4.40;99.90
5128;DHT22;2582;48.770;9.190;2024-01-30T05:42:54;4.20;99.90
5128;DHT22;2582;48.770;9.190;2024-01-30T05:45:20;4.20;99.90
5128;DHT22;2582;48.770;9.190;2024-01-30T05:47:47;4.30;99.90
5128;DHT22;2582;48.770;9.190;2024-01-30T05:50:13;4.40;99.90
5128;DHT22;2582;48.770;9.190;2024-01-30T05:52:39;4.40;99.90
5128;DHT22;2582;48.770;9.190;2024-01-30T05:55:04;4.40;99.90
5128;DHT22;2582;48.770;9.190;2024-01-30T05:57:31;4.40;99.90
5128;DHT22;2582;48.770;9.190;2024-01-30T05:59:56;4.40;99.90
5128;DHT22;2582;48.770;9.190;2024-01-30T06:02:22;4.40;99.90
5128;DHT22;2582;48.770;9.190;2024-01-30T06:04:47;4.50;99.90
5128;DHT22;2582;48.770;9.190;2024-01-30T06:07:14;4.50;99.90
5128;DHT22;2582;48.770;9.190;2024-01-30T06:09:39;4.40;99.90
5128;DHT22;2582;48.770;9.190;2024-01-30T06:12:06;4.50;99.90
5128;DHT22;2582;48.770;9.190;2024-01-30T06:14:32;4.50;99.90
5128;DHT22;2582;48.770;9.190;2024-01-30T06:16:58;4.50;99.90
5128;DHT22;2582;48.770;9.190;2024-01-30T06:19:24;4.40;99.90
5128;DHT22;2582;48.770;9.190;2024-01-30T06:21:50;4.40;99.90
5128;DHT22;2582;48.770;9.190;2024-01-30T06:24:15;4.30;99.90
5128;DHT22;2582;48.770;9.190;2024-01-30T06:26:41;4.30;99.90
5128;DHT22;2582;48.770;9.190;2024-01-30T06:29:06;4.40;99.90
5128;DHT22;2582;48.770;9.190;2024-01-30T06:31:33;4.40;99.90
5128;DHT22;2582;48.770;9.190;2024-01-30T06:33:58;4.40;99.90
5128;DHT22;2582;48.770;9.190;2024-01-30T06:36:24;4.30;99.90
5128;DHT22;2582;48.770;9.190;2024-01-30T06:38:49;4.30;99.90
5128;DHT22;2582;48.770;9.190;2024-01-30T06:41:15;4.20;99.90
5128;DHT22;2582;48.770;9.190;2024-01-30T06:43:41;4.10;99.90
5128;DHT22;2582;48.770;9.190;2024-01-30T06:46:06;4.20;99.90
5128;DHT22;2582;48.770;9.190;2024-01-30T06:48:32;4.20;99.90
5128;DHT22;2582;48.770;9.190;2024-01-30T06:50:57;4.20;99.90
5128;DHT22;2582;48.770;9.190;2024-01-30T06:53:23;4.20;99.90
5128;DHT22;2582;48.770;9.190;2024-01-30T06:55:49;4.20;99.90
5128;DHT22;2582;48.770;9.190;2024-01-30T06:58:14;4.20;99.90
5128;DHT22;2582;48.770;9.190;2024-01-30T07:00:40;4.10;99.90
5128;DHT22;2582;48.770;9.190;2024-01-30T07:03:06;4.10;99.90
5128;DHT22;2582;48.770;9.190;2024-01-30T07:05:32;4.10;99.90
5128;DHT22;2582;48.770;9.190;2024-01-30T07:07:57;4.10;99.90
5128;DHT22;2582;48.770;9.190;2024-01-30T07:10:23;4.10;99.90
5128;DHT22;2582;48.770;9.190;2024-01-30T07:12:48;4.10;99.90
5128;DHT22;2582;48.770;9.190;2024-01-30T07:15:14;4.10;99.90
5128;DHT22;2582;48.770;9.190;2024-01-30T07:17:42;4.10;99.90
5128;DHT22;2582;48.770;9.190;2024-01-30T07:20:08;4.20;99.90
5128;DHT22;2582;48.770;9.190;2024-01-30T07:22:34;4.20;99.90
5128;DHT22;2582;48.770;9.190;2024-01-30T07:25:00;4.10;99.90
5128;DHT22;2582;48.770;9.190;2024-01-30T07:27:26;4.00;99.90
5128;DHT22;2582;48.770;9.190;2024-01-30T07:29:51;4.20;99.90
5128;DHT22;2582;48.770;9.190;2024-01-30T07:32:17;4.30;99.90
5128;DHT22;2582;48.770;9.190;2024-01-30T07:34:43;4.30;99.90
5128;DHT22;2582;48.770;9.190;2024-01-30T07:37:09;4.30;99.90
5128;DHT22;2582;48.770;9.190;2024-01-30T07:39:36;4.40;99.90
5128;DHT22;2582;48.770;9.190;2024-01-30T07:42:02;4.50;99.90
5128;DHT22;2582;48.770;9.190;2024-01-30T07:44:28;4.70;99.90
5128;DHT22;2582;48.770;9.190;2024-01-30T07:46:53;4.80;99.90
5128;DHT22;2582;48.770;9.190;2024-01-30T07:49:20;4.90;99.90
5128;DHT22;2582;48.770;9.190;2024-01-30T07:51:45;4.80;99.90
5128;DHT22;2582;48.770;9.190;2024-01-30T07:54:11;4.80;99.90
5128;DHT22;2582;48.770;9.190;2024-01-30T07:56:37;4.90;99.90
5128;DHT22;2582;48.770;9.190;2024-01-30T07:59:02;5.10;99.90
5128;DHT22;2582;48.770;9.190;2024-01-30T08:01:28;5.10;99.90
5128;DHT22;2582;48.770;9.190;2024-01-30T08:03:54;5.20;99.90
5128;DHT22;2582;48.770;9.190;2024-01-30T08:06:19;5.30;99.90
5128;DHT22;2582;48.770;9.190;2024-01-30T08:08:45;5.40;99.90
5128;DHT22;2582;48.770;9.190;2024-01-30T08:11:11;5.50;99.90
5128;DHT22;2582;48.770;9.190;2024-01-30T08:13:37;5.60;99.90
5128;DHT22;2582;48.770;9.190;2024-01-30T08:16:03;5.70;99.90
5128;DHT22;2582;48.770;9.190;2024-01-30T08:18:29;5.90;99.90
5128;DHT22;2582;48.770;9.190;2024-01-30T08:20:55;6.10;99.90
5128;DHT22;2582;48.770;9.190;2024-01-30T08:23:20;6.20;99.90
5128;DHT22;2582;48.770;9.190;2024-01-30T08:25:46;6.30;99.90
5128;DHT22;2582;48.770;9.190;2024-01-30T08:28:11;6.40;99.90
5128;DHT22;2582;48.770;9.190;2024-01-30T08:30:37;6.50;99.90
5128;DHT22;2582;48.770;9.190;2024-01-30T08:33:04;6.50;99.90
5128;DHT22;2582;48.770;9.190;2024-01-30T08:35:30;6.60;99.90
5128;DHT22;2582;48.770;9.190;2024-01-30T08:37:58;6.70;99.90
5128;DHT22;2582;48.770;9.190;2024-01-30T08:40:24;6.80;99.90
5128;DHT22;2582;48.770;9.190;2024-01-30T08:42:49;7.00;99.90
5128;DHT22;2582;48.770;9.190;2024-01-30T08:45:15;7.20;99.90
5128;DHT22;2582;48.770;9.190;2024-01-30T08:47:41;7.30;99.90
5128;DHT22;2582;48.770;9.190;2024-01-30T08:50:07;7.30;99.90
5128;DHT22;2582;48.770;9.190;2024-01-30T08:52:33;7.40;99.90
5128;DHT22;2582;48.770;9.190;2024-01-30T08:54:59;7.50;99.90
5128;DHT22;2582;48.770;9.190;2024-01-30T08:57:25;7.70;99.90
5128;DHT22;2582;48.770;9.190;2024-01-30T08:59:54;7.80;99.90
5128;DHT22;2582;48.770;9.190;2024-01-30T09:02:19;7.90;99.90
5128;DHT22;2582;48.770;9.190;2024-01-30T09:04:45;8.00;99.90
5128;DHT22;2582;48.770;9.190;2024-01-30T09:07:10;8.20;99.90
5128;DHT22;2582;48.770;9.190;2024-01-30T09:09:38;8.30;99.90
5128;DHT22;2582;48.770;9.190;2024-01-30T09:12:05;8.30;99.90
5128;DHT22;2582;48.770;9.190;2024-01-30T09:14:33;8.50;99.90
5128;DHT22;2582;48.770;9.190;2024-01-30T09:16:59;8.30;99.90
5128;DHT22;2582;48.770;9.190;2024-01-30T09:19:24;8.00;99.90
5128;DHT22;2582;48.770;9.190;2024-01-30T09:21:50;7.70;99.90
5128;DHT22;2582;48.770;9.190;2024-01-30T09:24:15;7.70;99.90
5128;DHT22;2582;48.770;9.190;2024-01-30T09:26:41;7.70;99.90
5128;DHT22;2582;48.770;9.190;2024-01-30T09:29:07;7.90;99.90
5128;DHT22;2582;48.770;9.190;2024-01-30T09:31:32;8.20;99.90
5128;DHT22;2582;48.770;9.190;2024-01-30T09:33:58;8.20;99.90
5128;DHT22;2582;48.770;9.190;2024-01-30T09:36:24;8.10;99.90
5128;DHT22;2582;48.770;9.190;2024-01-30T09:38:49;8.20;99.90
5128;DHT22;2582;48.770;9.190;2024-01-30T09:41:15;8.10;99.90
5128;DHT22;2582;48.770;9.190;2024-01-30T09:43:42;8.20;99.90
5128;DHT22;2582;48.770;9.190;2024-01-30T09:46:13;8.10;99.90
5128;DHT22;2582;48.770;9.190;2024-01-30T09:48:41;8.10;99.90
5128;DHT22;2582;48.770;9.190;2024-01-30T09:51:09;8.20;99.90
5128;DHT22;2582;48.770;9.190;2024-01-30T09:53:35;8.40;99.90
5128;DHT22;2582;48.770;9.190;2024-01-30T09:56:02;8.60;99.90
5128;DHT22;2582;48.770;9.190;2024-01-30T09:58:28;9.00;99.90
5128;DHT22;2582;48.770;9.190;2024-01-30T10:00:53;9.20;99.90
5128;DHT22;2582;48.770;9.190;2024-01-30T10:03:19;9.70;99.90
5128;DHT22;2582;48.770;9.190;2024-01-30T10:05:51;9.70;99.90
5128;DHT22;2582;48.770;9.190;2024-01-30T10:08:20;9.60;99.90
5128;DHT22;2582;48.770;9.190;2024-01-30T10:10:46;9.70;99.90
5128;DHT22;2582;48.770;9.190;2024-01-30T10:13:13;9.70;99.90
5128;DHT22;2582;48.770;9.190;2024-01-30T10:15:39;9.70;99.90
5128;DHT22;2582;48.770;9.190;2024-01-30T10:18:06;9.50;99.90
5128;DHT22;2582;48.770;9.190;2024-01-30T10:20:32;9.30;99.90
5128;DHT22;2582;48.770;9.190;2024-01-30T10:22:58;9.30;99.90
5128;DHT22;2582;48.770;9.190;2024-01-30T10:25:25;9.50;99.90
5128;DHT22;2582;48.770;9.190;2024-01-30T10:27:54;9.70;99.90
5128;DHT22;2582;48.770;9.190;2024-01-30T10:30:23;9.80;99.90
5128;DHT22;2582;48.770;9.190;2024-01-30T10:32:50;9.90;99.90
5128;DHT22;2582;48.770;9.190;2024-01-30T10:35:16;10.00;99.90
5128;DHT22;2582;48.770;9.190;2024-01-30T10:37:47;10.10;99.90
5128;DHT22;2582;48.770;9.190;2024-01-30T10:40:14;10.30;99.90
5128;DHT22;2582;48.770;9.190;2024-01-30T10:42:43;10.70;99.90
5128;DHT22;2582;48.770;9.190;2024-01-30T10:45:11;10.70;99.90
5128;DHT22;2582;48.770;9.190;2024-01-30T10:47:43;10.60;99.90
5128;DHT22;2582;48.770;9.190;2024-01-30T10:50:09;10.90;99.90
5128;DHT22;2582;48.770;9.190;2024-01-30T10:52:36;10.90;99.90
5128;DHT22;2582;48.770;9.190;2024-01-30T10:55:04;11.40;99.90
5128;DHT22;2582;48.770;9.190;2024-01-30T10:57:33;11.60;99.90
5128;DHT22;2582;48.770;9.190;2024-01-30T11:00:01;11.40;99.90
5128;DHT22;2582;48.770;9.190;2024-01-30T11:02:31;11.20;99.90
5128;DHT22;2582;48.770;9.190;2024-01-30T11:04:58;11.10;99.90
5128;DHT22;2582;48.770;9.190;2024-01-30T11:07:26;11.20;99.90
5128;DHT22;2582;48.770;9.190;2024-01-30T11:09:53;11.20;99.90
5128;DHT22;2582;48.770;9.190;2024-01-30T11:12:23;11.20;99.90
5128;DHT22;2582;48.770;9.190;2024-01-30T11:15:00;11.60;99.90
5128;DHT22;2582;48.770;9.190;2024-01-30T11:18:00;11.50;99.90
5128;DHT22;2582;48.770;9.190;2024-01-30T11:20:27;11.90;99.90
5128;DHT22;2582;48.770;9.190;2024-01-30T11:22:55;12.10;99.90
5128;DHT22;2582;48.770;9.190;2024-01-30T11:25:22;12.00;99.90
5128;DHT22;2582;48.770;9.190;2024-01-30T11:27:50;11.80;99.90
5128;DHT22;2582;48.770;9.190;2024-01-30T11:30:26;11.60;99.90
5128;DHT22;2582;48.770;9.190;2024-01-30T11:33:09;11.80;99.90
5128;DHT22;2582;48.770;9.190;2024-01-30T11:35:38;11.90;99.90
5128;DHT22;2582;48.770;9.190;2024-01-30T11:38:13;12.30;99.90
5128;DHT22;2582;48.770;9.190;2024-01-30T11:40:39;12.80;99.90
5128;DHT22;2582;48.770;9.190;2024-01-30T11:43:07;13.40;99.90
5128;DHT22;2582;48.770;9.190;2024-01-30T11:45:33;12.90;99.90
5128;DHT22;2582;48.770;9.190;2024-01-30T11:48:00;12.60;99.90
5128;DHT22;2582;48.770;9.190;2024-01-30T11:50:27;12.30;99.90
5128;DHT22;2582;48.770;9.190;2024-01-30T11:52:54;12.40;99.90
5128;DHT22;2582;48.770;9.190;2024-01-30T11:55:20;12.60;99.90
5128;DHT22;2582;48.770;9.190;2024-01-30T11:57:45;12.60;99.90
5128;DHT22;2582;48.770;9.190;2024-01-30T12:00:15;12.90;99.90
5128;DHT22;2582;48.770;9.190;2024-01-30T12:02:42;12.70;99.90
5128;DHT22;2582;48.770;9.190;2024-01-30T12:05:07;13.00;99.90
5128;DHT22;2582;48.770;9.190;2024-01-30T12:07:34;13.10;99.90
5128;DHT22;2582;48.770;9.190;2024-01-30T12:09:59;13.10;99.90
5128;DHT22;2582;48.770;9.190;2024-01-30T12:12:26;13.60;99.90
5128;DHT22;2582;48.770;9.190;2024-01-30T12:14:52;13.30;99.90
5128;DHT22;2582;48.770;9.190;2024-01-30T12:17:32;13.00;99.90
5128;DHT22;2582;48.770;9.190;2024-01-30T12:20:19;13.20;99.90
5128;DHT22;2582;48.770;9.190;2024-01-30T12:22:49;13.40;99.90
5128;DHT22;2582;48.770;9.190;2024-01-30T12:25:16;14.10;99.90
5128;DHT22;2582;48.770;9.190;2024-01-30T12:27:49;14.00;99.90
5128;DHT22;2582;48.770;9.190;2024-01-30T12:30:19;13.60;99.90
5128;DHT22;2582;48.770;9.190;2024-01-30T12:32:46;13.30;99.90
5128;DHT22;2582;48.770;9.190;2024-01-30T12:35:17;13.40;99.90
5128;DHT22;2582;48.770;9.190;2024-01-30T12:37:44;13.30;99.90
5128;DHT22;2582;48.770;9.190;2024-01-30T12:40:19;13.40;99.90
5128;DHT22;2582;48.770;9.190;2024-01-30T12:42:46;13.10;99.90
5128;DHT22;2582;48.770;9.190;2024-01-30T12:45:14;13.10;99.90
5128;DHT22;2582;48.770;9.190;2024-01-30T12:47:41;13.40;99.90
5128;DHT22;2582;48.770;9.190;2024-01-30T12:50:07;14.00;99.90
5128;DHT22;2582;48.770;9.190;2024-01-30T12:52:32;15.20;99.50
5128;DHT22;2582;48.770;9.190;2024-01-30T12:54:58;15.30;98.50
5128;DHT22;2582;48.770;9.190;2024-01-30T12:57:23;15.30;98.30
5128;DHT22;2582;48.770;9.190;2024-01-30T12:59:49;15.10;98.20
5128;DHT22;2582;48.770;9.190;2024-01-30T13:02:15;15.00;98.50
5128;DHT22;2582;48.770;9.190;2024-01-30T13:04:40;14.90;98.40
5128;DHT22;2582;48.770;9.190;2024-01-30T13:07:06;15.10;98.50
5128;DHT22;2582;48.770;9.190;2024-01-30T13:09:31;15.20;98.10
5128;DHT22;2582;48.770;9.190;2024-01-30T13:11:58;15.30;97.90
5128;DHT22;2582;48.770;9.190;2024-01-30T13:14:24;15.00;97.90
5128;DHT22;2582;48.770;9.190;2024-01-30T13:16:50;14.80;98.30
5128;DHT22;2582;48.770;9.190;2024-01-30T13:19:16;14.80;98.60
5128;DHT22;2582;48.770;9.190;2024-01-30T13:21:41;14.70;98.20
5128;DHT22;2582;48.770;9.190;2024-01-30T13:24:07;14.80;98.20
5128;DHT22;2582;48.770;9.190;2024-01-30T13:26:33;15.10;97.80
5128;DHT22;2582;48.770;9.190;2024-01-30T13:28:59;15.80;97.20
5128;DHT22;2582;48.770;9.190;2024-01-30T13:31:24;16.20;96.30
5128;DHT22;2582;48.770;9.190;2024-01-30T13:33:50;16.40;95.90
5128;DHT22;2582;48.770;9.190;2024-01-30T13:36:16;16.60;95.40
5128;DHT22;2582;48.770;9.190;2024-01-30T13:38:42;16.40;95.50
5128;DHT22;2582;48.770;9.190;2024-01-30T13:41:07;16.40;95.50
5128;DHT22;2582;48.770;9.190;2024-01-30T13:43:33;16.30;95.60
5128;DHT22;2582;48.770;9.190;2024-01-30T13:45:59;16.20;95.50
5128;DHT22;2582;48.770;9.190;2024-01-30T13:48:24;16.20;95.60
5128;DHT22;2582;48.770;9.190;2024-01-30T13:50:50;16.20;95.90
5128;DHT22;2582;48.770;9.190;2024-01-30T13:53:15;16.00;95.90
5128;DHT22;2582;48.770;9.190;2024-01-30T13:55:41;15.90;96.00
5128;DHT22;2582;48.770;9.190;2024-01-30T13:58:07;16.00;96.20
5128;DHT22;2582;48.770;9.190;2024-01-30T14:00:33;16.10;96.40
5128;DHT22;2582;48.770;9.190;2024-01-30T14:02:59;16.30;95.90
5128;DHT22;2582;48.770;9.190;2024-01-30T14:05:26;16.20;95.50
5128;DHT22;2582;48.770;9.190;2024-01-30T14:07:52;16.20;95.40
5128;DHT22;2582;48.770;9.190;2024-01-30T14:10:18;16.30;95.30
5128;DHT22;2582;48.770;9.190;2024-01-30T14:12:43;16.10;95.50
5128;DHT22;2582;48.770;9.190;2024-01-30T14:15:10;16.00;95.40
5128;DHT22;2582;48.770;9.190;2024-01-30T14:17:36;16.00;95.50
5128;DHT22;2582;48.770;9.190;2024-01-30T14:20:03;15.90;95.60
5128;DHT22;2582;48.770;9.190;2024-01-30T14:22:29;15.80;95.80
5128;DHT22;2582;48.770;9.190;2024-01-30T14:24:55;15.80;95.90
5128;DHT22;2582;48.770;9.190;2024-01-30T14:27:21;15.80;95.80
5128;DHT22;2582;48.770;9.190;2024-01-30T14:29:47;15.50;96.20
5128;DHT22;2582;48.770;9.190;2024-01-30T14:32:13;14.70;96.80
5128;DHT22;2582;48.770;9.190;2024-01-30T14:34:38;14.80;97.40
5128;DHT22;2582;48.770;9.190;2024-01-30T14:37:04;14.80;97.00
5128;DHT22;2582;48.770;9.190;2024-01-30T14:39:30;14.80;97.40
5128;DHT22;2582;48.770;9.190;2024-01-30T14:41:55;14.90;97.60
5128;DHT22;2582;48.770;9.190;2024-01-30T14:44:21;15.00;98.00
5128;DHT22;2582;48.770;9.190;2024-01-30T14:46:48;15.00;98.60
5128;DHT22;2582;48.770;9.190;2024-01-30T14:49:13;14.90;98.60
5128;DHT22;2582;48.770;9.190;2024-01-30T14:51:41;14.80;99.10
5128;DHT22;2582;48.770;9.190;2024-01-30T14:54:06;14.70;99.70
5128;DHT22;2582;48.770;9.190;2024-01-30T14:56:32;14.60;99.90
5128;DHT22;2582;48.770;9.190;2024-01-30T14:58:58;14.50;99.90
5128;DHT22;2582;48.770;9.190;2024-01-30T15:01:24;14.40;99.90
5128;DHT22;2582;48.770;9.190;2024-01-30T15:03:49;14.00;99.90
5128;DHT22;2582;48.770;9.190;2024-01-30T15:06:17;13.80;99.50
5128;DHT22;2582;48.770;9.190;2024-01-30T15:08:43;13.70;99.70
5128;DHT22;2582;48.770;9.190;2024-01-30T15:11:08;13.40;99.70
5128;DHT22;2582;48.770;9.190;2024-01-30T15:13:34;13.30;99.90
5128;DHT22;2582;48.770;9.190;2024-01-30T15:15:59;13.40;99.90
5128;DHT22;2582;48.770;9.190;2024-01-30T15:18:27;13.50;99.90
5128;DHT22;2582;48.770;9.190;2024-01-30T15:20:52;13.60;99.90
5128;DHT22;2582;48.770;9.190;2024-01-30T15:23:18;13.60;99.90
5128;DHT22;2582;48.770;9.190;2024-01-30T15:25:43;13.60;99.90
5128;DHT22;2582;48.770;9.190;2024-01-30T15:28:09;13.40;99.90
5128;DHT22;2582;48.770;9.190;2024-01-30T15:30:35;13.30;99.90
5128;DHT22;2582;48.770;9.190;2024-01-30T15:33:02;13.10;99.90
5128;DHT22;2582;48.770;9.190;2024-01-30T15:35:29;13.00;99.90
5128;DHT22;2582;48.770;9.190;2024-01-30T15:37:55;12.90;99.90
5128;DHT22;2582;48.770;9.190;2024-01-30T15:40:21;12.80;99.90
5128;DHT22;2582;48.770;9.190;2024-01-30T15:42:47;12.70;99.90
5128;DHT22;2582;48.770;9.190;2024-01-30T15:45:12;12.30;99.90
5128;DHT22;2582;48.770;9.190;2024-01-30T15:47:38;12.20;99.90
5128;DHT22;2582;48.770;9.190;2024-01-30T15:50:04;12.10;99.90
5128;DHT22;2582;48.770;9.190;2024-01-30T15:52:30;12.00;99.90
5128;DHT22;2582;48.770;9.190;2024-01-30T15:54:55;11.80;99.90
5128;DHT22;2582;48.770;9.190;2024-01-30T15:57:21;11.60;99.90
5128;DHT22;2582;48.770;9.190;2024-01-30T15:59:47;11.50;99.90
5128;DHT22;2582;48.770;9.190;2024-01-30T16:02:12;11.40;99.90
5128;DHT22;2582;48.770;9.190;2024-01-30T16:04:39;11.40;99.90
5128;DHT22;2582;48.770;9.190;2024-01-30T16:07:05;11.40;99.90